createdAt,value
2022-10-30T00:00:50.600Z,12.70
2022-10-30T00:03:18.055Z,12.60
2022-10-30T00:05:47.144Z,12.60
2022-10-30T00:08:15.953Z,12.50
2022-10-30T00:10:43.740Z,12.50
2022-10-30T00:13:11.446Z,12.60
2022-10-30T00:15:39.046Z,12.50
2022-10-30T00:18:06.017Z,12.50
2022-10-30T00:20:32.986Z,12.40
2022-10-30T00:23:00.178Z,12.40
2022-10-30T00:25:27.298Z,12.30
2022-10-30T00:27:54.095Z,12.30
2022-10-30T00:30:20.925Z,12.20
2022-10-30T00:32:47.715Z,12.20
2022-10-30T00:35:14.692Z,12.10
2022-10-30T00:37:41.474Z,12.00
2022-10-30T00:40:09.956Z,12.00
2022-10-30T00:42:36.762Z,12.00
2022-10-30T00:45:03.731Z,11.90
2022-10-30T00:47:37.748Z,11.90
2022-10-30T00:50:12.398Z,11.90
2022-10-30T00:52:45.761Z,11.80
2022-10-30T00:55:18.517Z,11.80
2022-10-30T00:57:46.718Z,11.80
2022-10-30T01:00:15.014Z,11.70
2022-10-30T01:02:44.026Z,11.70
2022-10-30T01:05:15.790Z,11.60
2022-10-30T01:07:42.614Z,11.60
2022-10-30T01:10:11.172Z,11.50
2022-10-30T01:12:39.236Z,11.40
2022-10-30T01:15:07.357Z,11.40
2022-10-30T01:17:59.524Z,11.40
2022-10-30T01:20:59.021Z,11.40
2022-10-30T01:23:34.611Z,11.40
2022-10-30T01:26:38.492Z,11.40
2022-10-30T01:29:05.248Z,11.40
2022-10-30T01:31:54.742Z,11.50
2022-10-30T01:34:44.521Z,11.40
2022-10-30T01:37:32.737Z,11.30
2022-10-30T01:40:13.257Z,11.30
2022-10-30T01:42:52.168Z,11.20
2022-10-30T01:45:56.650Z,11.20
2022-10-30T01:48:35.494Z,11.20
2022-10-30T01:51:14.261Z,11.10
2022-10-30T01:53:52.949Z,11.10
2022-10-30T01:56:38.552Z,11.00
2022-10-30T01:59:26.189Z,11.00
2022-10-30T02:01:53.311Z,11.00
2022-10-30T02:04:20.584Z,10.90
2022-10-30T02:06:47.633Z,10.90
2022-10-30T02:09:18.146Z,10.80
2022-10-30T02:11:47.797Z,10.80
2022-10-30T02:14:18.331Z,10.80
2022-10-30T02:16:50.326Z,10.70
2022-10-30T02:19:17.835Z,10.70
2022-10-30T02:21:44.811Z,10.80
2022-10-30T02:24:11.591Z,10.70
2022-10-30T02:26:39.062Z,10.70
2022-10-30T02:29:05.890Z,10.70
2022-10-30T02:31:32.705Z,10.60
2022-10-30T02:33:59.505Z,10.60
2022-10-30T02:36:26.350Z,10.60
2022-10-30T02:38:55.135Z,10.60
2022-10-30T02:41:23.133Z,10.60
2022-10-30T02:43:52.012Z,10.60
2022-10-30T02:46:19.112Z,10.50
2022-10-30T02:48:45.940Z,10.50
2022-10-30T02:51:12.788Z,10.50
2022-10-30T02:53:40.017Z,10.50
2022-10-30T02:56:09.729Z,10.50
2022-10-30T02:58:36.959Z,10.40
2022-10-30T03:01:09.676Z,10.40
2022-10-30T03:03:37.019Z,10.40
2022-10-30T03:06:05.614Z,10.50
2022-10-30T03:08:32.519Z,10.60
2022-10-30T03:11:04.689Z,10.70
2022-10-30T03:13:32.854Z,10.60
2022-10-30T03:16:01.689Z,10.60
2022-10-30T03:18:28.511Z,10.60
2022-10-30T03:21:00.265Z,10.60
2022-10-30T03:23:28.093Z,10.50
2022-10-30T03:25:56.319Z,10.40
2022-10-30T03:28:24.850Z,10.40
2022-10-30T03:30:57.901Z,10.40
2022-10-30T03:33:24.711Z,10.30
2022-10-30T03:35:51.551Z,10.40
2022-10-30T03:38:18.457Z,10.50
2022-10-30T03:40:45.294Z,10.50
2022-10-30T03:43:12.159Z,10.50
2022-10-30T03:45:38.974Z,10.60
2022-10-30T03:48:06.787Z,10.50
2022-10-30T03:50:33.642Z,10.50
2022-10-30T03:53:00.543Z,10.40
2022-10-30T03:55:27.354Z,10.40
2022-10-30T03:57:54.185Z,10.30
2022-10-30T04:00:21.207Z,10.30
2022-10-30T04:02:49.609Z,10.30
2022-10-30T04:05:18.144Z,10.20
2022-10-30T04:07:44.964Z,10.20
2022-10-30T04:10:14.235Z,10.20
2022-10-30T04:12:41.891Z,10.20
2022-10-30T04:15:09.306Z,10.20
2022-10-30T04:17:36.124Z,10.30
2022-10-30T04:20:03.062Z,10.40
2022-10-30T04:22:29.900Z,10.40
2022-10-30T04:24:56.667Z,10.40
2022-10-30T04:27:23.592Z,10.40
2022-10-30T04:29:50.366Z,10.40
2022-10-30T04:32:17.244Z,10.30
2022-10-30T04:34:44.056Z,10.30
2022-10-30T04:37:10.912Z,10.30
2022-10-30T04:39:41.028Z,10.30
2022-10-30T04:42:12.251Z,10.20
2022-10-30T04:44:39.073Z,10.20
2022-10-30T04:47:05.903Z,10.20
2022-10-30T04:49:32.734Z,10.20
2022-10-30T04:51:59.565Z,10.20
2022-10-30T04:54:27.472Z,10.20
2022-10-30T04:56:54.498Z,10.20
2022-10-30T04:59:21.303Z,10.30
2022-10-30T05:01:48.158Z,10.50
2022-10-30T05:04:15.094Z,10.60
2022-10-30T05:06:41.907Z,10.80
2022-10-30T05:09:08.707Z,10.90
2022-10-30T05:11:35.645Z,10.90
2022-10-30T05:14:02.551Z,10.90
2022-10-30T05:16:29.367Z,11.00
2022-10-30T05:18:56.176Z,11.00
2022-10-30T05:21:23.145Z,11.10
2022-10-30T05:23:50.025Z,11.10
2022-10-30T05:26:16.843Z,11.10
2022-10-30T05:28:43.683Z,11.10
2022-10-30T05:31:10.480Z,11.00
2022-10-30T05:33:37.296Z,11.00
2022-10-30T05:36:04.484Z,10.90
2022-10-30T05:38:31.299Z,10.80
2022-10-30T05:40:58.134Z,10.80
2022-10-30T05:43:24.971Z,10.70
2022-10-30T05:45:51.751Z,10.70
2022-10-30T05:48:18.623Z,10.70
2022-10-30T05:50:45.482Z,10.70
2022-10-30T05:53:12.369Z,10.70
2022-10-30T05:55:39.167Z,10.70
2022-10-30T05:58:07.135Z,10.80
2022-10-30T06:00:35.791Z,10.90
2022-10-30T06:03:04.920Z,11.00
2022-10-30T06:05:34.309Z,11.20
2022-10-30T06:08:02.224Z,11.20
2022-10-30T06:10:29.446Z,11.30
2022-10-30T06:13:07.050Z,11.30
2022-10-30T06:15:34.402Z,11.40
2022-10-30T06:18:01.658Z,11.50
2022-10-30T06:20:30.462Z,11.60
2022-10-30T06:23:05.816Z,11.70
2022-10-30T06:25:39.597Z,11.80
2022-10-30T06:28:09.409Z,11.90
2022-10-30T06:30:36.187Z,12.00
2022-10-30T06:33:04.957Z,12.20
2022-10-30T06:35:31.909Z,12.30
2022-10-30T06:38:00.464Z,12.50
2022-10-30T06:40:29.951Z,12.90
2022-10-30T06:42:57.452Z,13.50
2022-10-30T06:45:25.091Z,14.20
2022-10-30T06:47:52.298Z,14.70
2022-10-30T06:50:22.095Z,15.40
2022-10-30T06:52:49.610Z,15.50
2022-10-30T06:55:17.112Z,15.80
2022-10-30T06:57:43.988Z,16.10
2022-10-30T07:00:11.413Z,16.90
2022-10-30T07:02:38.207Z,17.30
2022-10-30T07:05:05.303Z,17.90
2022-10-30T07:07:32.304Z,18.40
2022-10-30T07:09:59.166Z,19.00
2022-10-30T07:12:25.989Z,19.90
2022-10-30T07:14:52.834Z,20.20
2022-10-30T07:17:19.652Z,20.80
2022-10-30T07:19:46.465Z,21.00
2022-10-30T07:22:13.262Z,21.00
2022-10-30T07:24:40.062Z,21.30
2022-10-30T07:27:06.931Z,20.90
2022-10-30T07:29:33.769Z,21.00
2022-10-30T07:32:03.970Z,20.00
2022-10-30T07:34:31.330Z,20.00
2022-10-30T07:36:58.178Z,19.90
2022-10-30T07:39:24.980Z,20.00
2022-10-30T07:41:51.779Z,20.40
2022-10-30T07:44:18.657Z,20.90
2022-10-30T07:46:45.442Z,21.30
2022-10-30T07:49:12.297Z,21.70
2022-10-30T07:51:39.227Z,22.30
2022-10-30T07:54:06.051Z,22.60
2022-10-30T07:56:32.903Z,22.60
2022-10-30T07:58:59.701Z,22.60
2022-10-30T08:01:26.672Z,22.60
2022-10-30T08:03:53.586Z,22.60
2022-10-30T08:06:23.220Z,23.30
2022-10-30T08:08:53.225Z,24.40
2022-10-30T08:11:20.038Z,24.50
2022-10-30T08:13:47.034Z,24.50
2022-10-30T08:16:14.655Z,24.50
2022-10-30T08:18:42.708Z,25.20
2022-10-30T08:21:10.155Z,24.90
2022-10-30T08:23:37.236Z,25.40
2022-10-30T08:26:05.464Z,26.10
2022-10-30T08:28:33.310Z,25.50
2022-10-30T08:31:01.170Z,25.70
2022-10-30T08:33:28.517Z,25.50
2022-10-30T08:35:57.542Z,25.90
2022-10-30T08:38:24.755Z,25.80
2022-10-30T08:40:52.023Z,25.60
2022-10-30T08:43:19.186Z,25.80
2022-10-30T08:45:46.028Z,25.90
2022-10-30T08:48:15.366Z,26.30
2022-10-30T08:50:42.391Z,26.50
2022-10-30T08:53:12.400Z,26.40
2022-10-30T08:55:39.358Z,26.70
2022-10-30T08:58:06.210Z,27.30
2022-10-30T09:00:33.205Z,27.40
2022-10-30T09:03:00.462Z,27.00
2022-10-30T09:05:27.647Z,26.80
2022-10-30T09:08:02.168Z,26.80
2022-10-30T09:10:29.857Z,26.70
2022-10-30T09:13:02.502Z,26.80
2022-10-30T09:15:29.696Z,26.70
2022-10-30T09:18:02.247Z,27.10
2022-10-30T09:20:30.515Z,27.70
2022-10-30T09:22:57.850Z,28.10
2022-10-30T09:25:25.150Z,28.40
2022-10-30T09:27:51.978Z,28.80
2022-10-30T09:30:18.842Z,29.00
2022-10-30T09:32:46.678Z,29.40
2022-10-30T09:35:14.931Z,30.10
2022-10-30T09:37:41.811Z,30.20
2022-10-30T09:40:11.486Z,30.10
2022-10-30T09:42:43.616Z,30.10
2022-10-30T09:45:29.974Z,29.40
2022-10-30T09:48:39.523Z,29.00
2022-10-30T09:51:13.380Z,28.70
2022-10-30T09:53:40.158Z,28.70
2022-10-30T09:56:18.030Z,28.70
2022-10-30T09:59:14.990Z,29.00
2022-10-30T10:02:15.292Z,29.20
2022-10-30T10:04:45.084Z,29.70
2022-10-30T10:07:33.190Z,30.20
2022-10-30T10:10:07.023Z,30.40
2022-10-30T10:12:46.543Z,30.50
2022-10-30T10:15:38.671Z,30.60
2022-10-30T10:18:14.581Z,30.80
2022-10-30T10:20:45.459Z,31.00
2022-10-30T10:23:25.057Z,31.20
2022-10-30T10:25:54.437Z,31.10
2022-10-30T10:28:48.935Z,31.10
2022-10-30T10:31:23.861Z,30.90
2022-10-30T10:33:59.690Z,31.70
2022-10-30T10:36:55.406Z,31.50
2022-10-30T10:39:46.468Z,31.50
2022-10-30T10:42:40.189Z,31.50
2022-10-30T10:45:27.958Z,31.60
2022-10-30T10:48:16.597Z,31.80
2022-10-30T10:50:57.500Z,31.10
2022-10-30T10:53:45.532Z,31.00
2022-10-30T10:56:13.745Z,31.30
2022-10-30T10:58:55.423Z,31.60
2022-10-30T11:01:36.871Z,31.80
2022-10-30T11:04:12.872Z,31.10
2022-10-30T11:06:43.750Z,30.70
2022-10-30T11:09:16.577Z,30.90
2022-10-30T11:11:49.242Z,31.00
2022-10-30T11:14:19.523Z,31.30
2022-10-30T11:16:58.355Z,31.50
2022-10-30T11:19:25.590Z,31.60
2022-10-30T11:21:55.340Z,31.70
2022-10-30T11:24:34.315Z,31.50
2022-10-30T11:27:26.799Z,31.70
2022-10-30T11:29:56.411Z,31.80
2022-10-30T11:32:28.001Z,32.00
2022-10-30T11:35:10.140Z,32.20
2022-10-30T11:37:39.394Z,32.30
2022-10-30T11:40:12.208Z,32.20
2022-10-30T11:42:42.805Z,32.20
2022-10-30T11:45:16.208Z,32.20
2022-10-30T11:47:44.709Z,32.40
2022-10-30T11:50:19.439Z,31.20
2022-10-30T11:52:48.052Z,30.40
2022-10-30T11:55:17.450Z,30.10
2022-10-30T11:57:50.124Z,29.90
2022-10-30T12:00:21.391Z,29.40
2022-10-30T12:02:54.708Z,29.40
2022-10-30T12:05:27.623Z,29.00
2022-10-30T12:08:12.732Z,28.80
2022-10-30T12:10:59.732Z,28.70
2022-10-30T12:13:28.280Z,28.60
2022-10-30T12:16:06.589Z,28.60
2022-10-30T12:18:34.343Z,29.10
2022-10-30T12:21:03.311Z,29.20
2022-10-30T12:23:30.859Z,29.60
2022-10-30T12:26:17.950Z,30.50
2022-10-30T12:28:55.289Z,31.30
2022-10-30T12:31:33.431Z,31.80
2022-10-30T12:34:25.237Z,32.20
2022-10-30T12:37:04.922Z,32.60
2022-10-30T12:40:20.535Z,32.40
2022-10-30T12:43:28.747Z,32.50
2022-10-30T12:46:06.815Z,32.80
2022-10-30T12:48:40.667Z,33.40
2022-10-30T12:51:26.320Z,33.70
2022-10-30T12:53:53.083Z,33.80
2022-10-30T12:56:25.061Z,34.10
2022-10-30T12:59:16.658Z,34.20
2022-10-30T13:01:54.660Z,34.10
2022-10-30T13:04:39.797Z,33.50
2022-10-30T13:07:47.483Z,33.00
2022-10-30T13:10:31.529Z,32.80
2022-10-30T13:13:05.329Z,32.50
2022-10-30T13:15:42.224Z,32.20
2022-10-30T13:18:19.855Z,32.30
2022-10-30T13:21:01.180Z,32.30
2022-10-30T13:23:38.453Z,32.00
2022-10-30T13:26:37.030Z,31.60
2022-10-30T13:29:09.732Z,30.80
2022-10-30T13:32:04.202Z,30.00
2022-10-30T13:34:58.652Z,29.20
2022-10-30T13:37:36.043Z,28.80
2022-10-30T13:40:14.677Z,28.60
2022-10-30T13:42:50.496Z,29.30
2022-10-30T13:45:35.831Z,30.20
2022-10-30T13:48:02.586Z,30.70
2022-10-30T13:50:55.360Z,31.50
2022-10-30T13:53:26.908Z,32.30
2022-10-30T13:55:56.439Z,32.40
2022-10-30T13:58:26.176Z,32.30
2022-10-30T14:01:25.586Z,31.50
2022-10-30T14:04:02.746Z,30.90
2022-10-30T14:06:59.995Z,30.50
2022-10-30T14:09:49.594Z,30.60
2022-10-30T14:12:54.281Z,31.00
2022-10-30T14:15:31.946Z,31.40
2022-10-30T14:18:14.059Z,31.60
2022-10-30T14:20:42.795Z,31.50
2022-10-30T14:23:24.420Z,30.10
2022-10-30T14:26:03.895Z,28.80
2022-10-30T14:28:35.298Z,27.70
2022-10-30T14:31:13.202Z,26.90
2022-10-30T14:33:39.942Z,26.20
2022-10-30T14:36:26.595Z,25.60
2022-10-30T14:39:03.479Z,25.20
2022-10-30T14:42:02.284Z,24.70
2022-10-30T14:45:05.676Z,24.20
2022-10-30T14:47:53.812Z,24.00
2022-10-30T14:50:49.631Z,23.80
2022-10-30T14:53:32.858Z,23.70
2022-10-30T14:56:14.640Z,23.50
2022-10-30T14:58:41.848Z,23.50
2022-10-30T15:01:11.546Z,23.40
2022-10-30T15:03:47.548Z,23.30
2022-10-30T15:06:31.388Z,22.90
2022-10-30T15:09:42.496Z,22.60
2022-10-30T15:12:24.391Z,22.30
2022-10-30T15:15:04.665Z,22.10
2022-10-30T15:17:37.645Z,21.90
2022-10-30T15:20:13.005Z,21.70
2022-10-30T15:22:40.883Z,21.50
2022-10-30T15:25:18.806Z,21.40
2022-10-30T15:27:48.036Z,21.30
2022-10-30T15:30:18.797Z,21.40
2022-10-30T15:32:45.639Z,21.50
2022-10-30T15:35:20.708Z,21.60
2022-10-30T15:38:07.995Z,21.50
2022-10-30T15:40:36.945Z,21.50
2022-10-30T15:43:06.665Z,21.30
2022-10-30T15:45:36.624Z,21.00
2022-10-30T15:48:27.755Z,20.70
2022-10-30T15:51:13.961Z,20.40
2022-10-30T15:53:44.565Z,20.20
2022-10-30T15:56:31.588Z,19.90
2022-10-30T15:59:04.434Z,19.70
2022-10-30T16:01:44.353Z,19.50
2022-10-30T16:04:19.585Z,19.30
2022-10-30T16:06:58.464Z,19.10
2022-10-30T16:09:26.671Z,18.90
2022-10-30T16:11:56.265Z,18.90
2022-10-30T16:14:27.751Z,18.80
2022-10-30T16:16:54.864Z,18.60
2022-10-30T16:19:29.213Z,18.40
2022-10-30T16:21:57.572Z,18.30
2022-10-30T16:24:34.182Z,18.20
2022-10-30T16:27:06.833Z,18.00
2022-10-30T16:29:34.679Z,17.90
2022-10-30T16:32:02.059Z,17.70
2022-10-30T16:34:37.188Z,17.60
2022-10-30T16:37:05.877Z,17.50
2022-10-30T16:39:33.899Z,17.40
2022-10-30T16:42:01.415Z,17.30
2022-10-30T16:44:30.414Z,17.20
2022-10-30T16:47:09.932Z,17.10
2022-10-30T16:49:37.952Z,17.00
2022-10-30T16:52:13.249Z,16.90
2022-10-30T16:54:46.547Z,16.80
2022-10-30T16:57:19.179Z,16.70
2022-10-30T16:59:51.817Z,16.60
2022-10-30T17:02:24.121Z,16.50
2022-10-30T17:04:58.531Z,16.50
2022-10-30T17:07:27.015Z,16.50
2022-10-30T17:09:56.969Z,16.50
2022-10-30T17:12:29.178Z,16.50
2022-10-30T17:15:16.255Z,16.40
2022-10-30T17:17:43.275Z,16.30
2022-10-30T17:20:28.280Z,16.20
2022-10-30T17:23:27.421Z,16.10
2022-10-30T17:25:55.373Z,16.00
2022-10-30T17:28:28.252Z,15.90
2022-10-30T17:30:55.511Z,15.80
2022-10-30T17:33:40.834Z,15.70
2022-10-30T17:36:08.819Z,15.60
2022-10-30T17:38:35.641Z,15.50
2022-10-30T17:41:03.603Z,15.50
2022-10-30T17:43:33.835Z,15.40
2022-10-30T17:46:01.126Z,15.30
2022-10-30T17:48:29.482Z,15.20
2022-10-30T17:50:56.333Z,15.20
2022-10-30T17:53:26.598Z,15.10
2022-10-30T17:56:11.132Z,15.10
2022-10-30T17:58:38.056Z,15.10
2022-10-30T18:01:05.122Z,15.10
2022-10-30T18:03:32.011Z,15.10
2022-10-30T18:06:02.185Z,15.00
2022-10-30T18:08:29.035Z,14.80
2022-10-30T18:10:55.817Z,14.80
2022-10-30T18:13:22.763Z,14.80
2022-10-30T18:15:56.127Z,14.70
2022-10-30T18:18:22.974Z,14.70
2022-10-30T18:20:49.996Z,14.60
2022-10-30T18:23:50.922Z,14.50
2022-10-30T18:26:16.813Z,14.40
2022-10-30T18:28:43.661Z,14.50
2022-10-30T18:31:15.397Z,14.40
2022-10-30T18:33:43.051Z,14.30
2022-10-30T18:36:14.983Z,14.30
2022-10-30T18:38:42.470Z,14.30
2022-10-30T18:41:36.534Z,14.20
2022-10-30T18:44:04.319Z,14.00
2022-10-30T18:46:32.644Z,14.00
2022-10-30T18:48:59.617Z,14.00
2022-10-30T18:51:28.355Z,13.90
2022-10-30T18:53:57.030Z,13.80
2022-10-30T18:56:28.611Z,13.80
2022-10-30T18:59:00.590Z,13.90
2022-10-30T19:01:32.033Z,13.90
2022-10-30T19:04:03.907Z,13.90
2022-10-30T19:06:34.320Z,13.90
2022-10-30T19:09:01.597Z,14.00
2022-10-30T19:11:31.372Z,13.90
2022-10-30T19:13:58.573Z,13.70
2022-10-30T19:16:25.788Z,13.60
2022-10-30T19:18:52.795Z,13.60
2022-10-30T19:21:22.185Z,13.50
2022-10-30T19:23:49.202Z,13.40
2022-10-30T19:26:17.410Z,13.40
2022-10-30T19:28:45.362Z,13.30
2022-10-30T19:31:17.680Z,13.30
2022-10-30T19:33:45.211Z,13.30
2022-10-30T19:36:31.877Z,13.30
